KSTP/STP METAR and TAF weather

Enter ICAO airport designator
Station Type Date Time Source
KSTP METAR 2019/02/20 23:29 UTC NOAA

KSTP 202329Z 17004KT 1 3/4SM -SN BR FEW015 OVC027 M02/M04 A2959 RMK AO2 P0000 T10221044


Station Type Date Time Source
KSTP Decoded METAR 2019/02/20 23:29 UTC NOAA

DOWNTOWN HOLMAN FIELD, MN, United States (KSTP) 44-56N 093-03W 219M
Feb 20, 2019 - 06:29 PM EST / 2019.02.20 2329 UTC
Wind: from the S (170 degrees) at 5 MPH (4 KT):0
Visibility: 1 3/4 mile(s):0
Sky conditions: overcast
Weather: light snow; mist
Precipitation last hour: A trace
Temperature: 28.0 F (-2.2 C)
Windchill: 23 F (-5 C):1
Dew Point: 24.1 F (-4.4 C)
Relative Humidity: 84%
Pressure (altimeter): 29.59 in. Hg (1002 hPa)
ob: KSTP 202329Z 17004KT 1 3/4SM -SN BR FEW015 OVC027 M02/M04 A2959 RMK AO2 P0000 T10221044
cycle: 23

Station Type Date Time Source
KSTP TAF 2018/02/05 20:57 UTC NOAA

TAF
AMD KSTP 051957Z 0520/0618 25007KT P6SM VCSH BKN020 OVC050
TEMPO 0520/0522 SCT020
FM052200 26006KT P6SM FEW020 BKN110
FM060100 31006KT P6SM FEW100
AMD NOT SKED


Example: see airport list